sensor_id;sensor_type;location;lat;lon;timestamp;pressure;altitude;pressure_sealevel;temperature;humidity
82927;BME280;72788;40.218;44.486;2023-12-28T00:00:43;89023.56;;;6.85;48.70
82927;BME280;72788;40.218;44.486;2023-12-28T00:03:08;89028.03;;;6.78;48.81
82927;BME280;72788;40.218;44.486;2023-12-28T00:05:34;89032.03;;;6.64;49.53
82927;BME280;72788;40.218;44.486;2023-12-28T00:07:59;89032.31;;;6.52;49.03
82927;BME280;72788;40.218;44.486;2023-12-28T00:10:26;89023.69;;;6.52;49.31
82927;BME280;72788;40.218;44.486;2023-12-28T00:12:53;89015.47;;;6.53;50.32
82927;BME280;72788;40.218;44.486;2023-12-28T00:15:18;89004.91;;;6.43;49.10
82927;BME280;72788;40.218;44.486;2023-12-28T00:17:44;89015.34;;;6.39;50.17
82927;BME280;72788;40.218;44.486;2023-12-28T00:20:10;89008.25;;;6.40;48.90
82927;BME280;72788;40.218;44.486;2023-12-28T00:22:36;89007.44;;;6.36;49.88
82927;BME280;72788;40.218;44.486;2023-12-28T00:25:05;89009.28;;;6.32;49.72
82927;BME280;72788;40.218;44.486;2023-12-28T00:27:31;89002.56;;;6.31;49.72
82927;BME280;72788;40.218;44.486;2023-12-28T00:29:56;88996.88;;;6.25;49.76
82927;BME280;72788;40.218;44.486;2023-12-28T00:32:22;89000.66;;;6.28;50.63
82927;BME280;72788;40.218;44.486;2023-12-28T00:34:47;89009.25;;;6.25;49.92
82927;BME280;72788;40.218;44.486;2023-12-28T00:37:13;89002.47;;;6.20;50.01
82927;BME280;72788;40.218;44.486;2023-12-28T00:39:39;88999.47;;;6.18;49.90
82927;BME280;72788;40.218;44.486;2023-12-28T00:42:06;88997.53;;;6.11;50.01
82927;BME280;72788;40.218;44.486;2023-12-28T00:44:32;88994.47;;;6.02;49.51
82927;BME280;72788;40.218;44.486;2023-12-28T00:46:58;88986.94;;;6.01;49.68
82927;BME280;72788;40.218;44.486;2023-12-28T00:49:23;88991.03;;;5.98;49.97
82927;BME280;72788;40.218;44.486;2023-12-28T00:51:49;88985.47;;;6.03;49.86
82927;BME280;72788;40.218;44.486;2023-12-28T00:54:14;88974.56;;;5.98;50.93
82927;BME280;72788;40.218;44.486;2023-12-28T00:56:40;88983.56;;;6.00;49.88
82927;BME280;72788;40.218;44.486;2023-12-28T00:59:06;88984.31;;;6.01;50.34
82927;BME280;72788;40.218;44.486;2023-12-28T01:01:31;88986.19;;;6.00;50.39
82927;BME280;72788;40.218;44.486;2023-12-28T01:03:57;88973.44;;;5.99;50.54
82927;BME280;72788;40.218;44.486;2023-12-28T01:06:23;88955.78;;;5.92;50.48
82927;BME280;72788;40.218;44.486;2023-12-28T01:08:53;88970.09;;;6.02;50.12
82927;BME280;72788;40.218;44.486;2023-12-28T01:11:19;88973.50;;;6.06;50.68
82927;BME280;72788;40.218;44.486;2023-12-28T01:13:44;88970.44;;;6.00;49.94
82927;BME280;72788;40.218;44.486;2023-12-28T01:16:13;88985.09;;;6.05;50.45
82927;BME280;72788;40.218;44.486;2023-12-28T01:18:39;88983.25;;;6.09;50.26
82927;BME280;72788;40.218;44.486;2023-12-28T01:21:05;88982.50;;;6.08;50.51
82927;BME280;72788;40.218;44.486;2023-12-28T01:23:31;88971.63;;;6.03;50.87
82927;BME280;72788;40.218;44.486;2023-12-28T01:25:57;88963.34;;;6.01;50.95
82927;BME280;72788;40.218;44.486;2023-12-28T01:28:23;88961.44;;;5.98;50.08
82927;BME280;72788;40.218;44.486;2023-12-28T01:30:48;88966.31;;;5.96;50.91
82927;BME280;72788;40.218;44.486;2023-12-28T01:33:14;88971.16;;;5.94;51.08
82927;BME280;72788;40.218;44.486;2023-12-28T01:35:41;88969.63;;;5.93;51.35
82927;BME280;72788;40.218;44.486;2023-12-28T01:38:07;88965.53;;;5.92;51.00
82927;BME280;72788;40.218;44.486;2023-12-28T01:40:33;88959.50;;;5.88;51.12
82927;BME280;72788;40.218;44.486;2023-12-28T01:42:58;88956.94;;;5.95;49.98
82927;BME280;72788;40.218;44.486;2023-12-28T01:45:24;88958.53;;;6.06;50.53
82927;BME280;72788;40.218;44.486;2023-12-28T01:47:50;88960.88;;;6.18;50.23
82927;BME280;72788;40.218;44.486;2023-12-28T01:50:17;88956.06;;;6.31;50.03
82927;BME280;72788;40.218;44.486;2023-12-28T01:52:44;88963.63;;;6.40;50.54
82927;BME280;72788;40.218;44.486;2023-12-28T01:55:10;88955.84;;;6.47;49.94
82927;BME280;72788;40.218;44.486;2023-12-28T01:57:36;88961.03;;;6.43;50.19
82927;BME280;72788;40.218;44.486;2023-12-28T02:00:02;88957.28;;;6.41;50.45
82927;BME280;72788;40.218;44.486;2023-12-28T02:02:30;88957.25;;;6.37;50.72
82927;BME280;72788;40.218;44.486;2023-12-28T02:04:56;88962.53;;;6.41;49.78
82927;BME280;72788;40.218;44.486;2023-12-28T02:07:24;88962.16;;;6.39;50.48
82927;BME280;72788;40.218;44.486;2023-12-28T02:09:49;88957.69;;;6.46;50.09
82927;BME280;72788;40.218;44.486;2023-12-28T02:12:15;88957.31;;;6.44;49.67
82927;BME280;72788;40.218;44.486;2023-12-28T02:14:41;88951.69;;;6.42;49.87
82927;BME280;72788;40.218;44.486;2023-12-28T02:19:49;88954.31;;;6.46;50.46
82927;BME280;72788;40.218;44.486;2023-12-28T02:22:15;88965.94;;;6.45;49.88
82927;BME280;72788;40.218;44.486;2023-12-28T02:25:09;88959.09;;;6.33;50.47
82927;BME280;72788;40.218;44.486;2023-12-28T02:27:42;88966.44;;;6.13;49.93
82927;BME280;72788;40.218;44.486;2023-12-28T02:30:08;88967.47;;;6.02;51.42
82927;BME280;72788;40.218;44.486;2023-12-28T02:35:34;88974.09;;;5.89;51.15
82927;BME280;72788;40.218;44.486;2023-12-28T02:38:07;88970.41;;;5.93;51.38
82927;BME280;72788;40.218;44.486;2023-12-28T02:40:41;88965.16;;;5.93;50.62
82927;BME280;72788;40.218;44.486;2023-12-28T02:43:09;88970.03;;;5.91;50.48
82927;BME280;72788;40.218;44.486;2023-12-28T02:45:36;88975.31;;;5.98;50.89
82927;BME280;72788;40.218;44.486;2023-12-28T02:48:03;88975.78;;;6.07;51.26
82927;BME280;72788;40.218;44.486;2023-12-28T02:50:29;88990.38;;;6.08;50.50
82927;BME280;72788;40.218;44.486;2023-12-28T02:52:58;88987.31;;;5.99;50.76
82927;BME280;72788;40.218;44.486;2023-12-28T02:55:24;88994.38;;;5.92;50.83
82927;BME280;72788;40.218;44.486;2023-12-28T02:57:51;88983.44;;;5.86;51.36
82927;BME280;72788;40.218;44.486;2023-12-28T03:00:17;88981.59;;;5.87;52.04
82927;BME280;72788;40.218;44.486;2023-12-28T03:02:43;88991.31;;;5.86;50.69
82927;BME280;72788;40.218;44.486;2023-12-28T03:05:09;88973.63;;;5.80;51.32
82927;BME280;72788;40.218;44.486;2023-12-28T03:07:35;88995.09;;;5.92;51.45
82927;BME280;72788;40.218;44.486;2023-12-28T03:10:02;88983.00;;;5.84;51.26
82927;BME280;72788;40.218;44.486;2023-12-28T03:12:29;89001.16;;;6.00;51.03
82927;BME280;72788;40.218;44.486;2023-12-28T03:14:55;89010.22;;;6.06;50.60
82927;BME280;72788;40.218;44.486;2023-12-28T03:17:21;89013.22;;;6.08;51.25
82927;BME280;72788;40.218;44.486;2023-12-28T03:19:47;89009.50;;;6.09;50.68
82927;BME280;72788;40.218;44.486;2023-12-28T03:22:13;89003.50;;;6.12;51.05
82927;BME280;72788;40.218;44.486;2023-12-28T03:24:39;88997.94;;;6.17;50.67
82927;BME280;72788;40.218;44.486;2023-12-28T03:27:06;88996.47;;;6.19;51.53
82927;BME280;72788;40.218;44.486;2023-12-28T03:29:32;88997.63;;;6.22;50.90
82927;BME280;72788;40.218;44.486;2023-12-28T03:31:58;88997.66;;;6.29;50.97
82927;BME280;72788;40.218;44.486;2023-12-28T03:34:24;88996.59;;;6.37;50.55
82927;BME280;72788;40.218;44.486;2023-12-28T03:36:52;88997.06;;;6.46;50.36
82927;BME280;72788;40.218;44.486;2023-12-28T03:39:18;89005.31;;;6.52;50.54
82927;BME280;72788;40.218;44.486;2023-12-28T03:41:44;89006.09;;;6.56;50.53
82927;BME280;72788;40.218;44.486;2023-12-28T03:44:10;89001.94;;;6.48;50.14
82927;BME280;72788;40.218;44.486;2023-12-28T03:46:35;89011.22;;;6.35;50.37
82927;BME280;72788;40.218;44.486;2023-12-28T03:49:01;89013.41;;;6.29;50.61
82927;BME280;72788;40.218;44.486;2023-12-28T03:51:27;89012.63;;;6.25;50.87
82927;BME280;72788;40.218;44.486;2023-12-28T03:53:53;89009.63;;;6.23;50.98
82927;BME280;72788;40.218;44.486;2023-12-28T03:56:22;89011.91;;;6.28;51.20
82927;BME280;72788;40.218;44.486;2023-12-28T03:58:49;89020.56;;;6.36;51.19
82927;BME280;72788;40.218;44.486;2023-12-28T04:01:20;89024.00;;;6.43;51.12
82927;BME280;72788;40.218;44.486;2023-12-28T04:03:47;89011.75;;;6.54;50.68
82927;BME280;72788;40.218;44.486;2023-12-28T04:06:14;89017.81;;;6.65;50.47
82927;BME280;72788;40.218;44.486;2023-12-28T04:08:40;89020.03;;;6.63;50.64
82927;BME280;72788;40.218;44.486;2023-12-28T04:11:06;89015.03;;;6.48;50.17
82927;BME280;72788;40.218;44.486;2023-12-28T04:13:32;89012.41;;;6.48;50.40
82927;BME280;72788;40.218;44.486;2023-12-28T04:15:58;89008.34;;;6.50;50.42
82927;BME280;72788;40.218;44.486;2023-12-28T04:18:24;89001.25;;;6.54;50.75
82927;BME280;72788;40.218;44.486;2023-12-28T04:20:49;89001.25;;;6.58;50.67
82927;BME280;72788;40.218;44.486;2023-12-28T04:23:15;88994.16;;;6.58;50.52
82927;BME280;72788;40.218;44.486;2023-12-28T04:25:41;88992.97;;;6.52;49.86
82927;BME280;72788;40.218;44.486;2023-12-28T04:28:07;89006.78;;;6.46;50.47
82927;BME280;72788;40.218;44.486;2023-12-28T04:30:33;89005.22;;;6.34;50.94
82927;BME280;72788;40.218;44.486;2023-12-28T04:32:59;88999.13;;;6.23;50.62
82927;BME280;72788;40.218;44.486;2023-12-28T04:35:25;88998.25;;;6.08;50.54
82927;BME280;72788;40.218;44.486;2023-12-28T04:37:51;89012.81;;;6.02;50.74
82927;BME280;72788;40.218;44.486;2023-12-28T04:40:16;89009.38;;;5.95;52.19
82927;BME280;72788;40.218;44.486;2023-12-28T04:42:43;89010.81;;;5.92;51.52
82927;BME280;72788;40.218;44.486;2023-12-28T04:45:09;89013.09;;;5.94;51.04
82927;BME280;72788;40.218;44.486;2023-12-28T04:47:36;89015.66;;;5.87;51.86
82927;BME280;72788;40.218;44.486;2023-12-28T04:50:02;89029.78;;;5.79;51.04
82927;BME280;72788;40.218;44.486;2023-12-28T04:52:28;89033.09;;;5.72;51.69
82927;BME280;72788;40.218;44.486;2023-12-28T04:54:54;89034.25;;;5.78;51.60
82927;BME280;72788;40.218;44.486;2023-12-28T04:57:20;89030.34;;;5.95;51.79
82927;BME280;72788;40.218;44.486;2023-12-28T04:59:46;89017.72;;;6.07;51.38
82927;BME280;72788;40.218;44.486;2023-12-28T05:02:12;89011.09;;;6.21;51.45
82927;BME280;72788;40.218;44.486;2023-12-28T05:04:37;89026.19;;;6.34;50.91
82927;BME280;72788;40.218;44.486;2023-12-28T05:07:06;89020.22;;;6.37;51.19
82927;BME280;72788;40.218;44.486;2023-12-28T05:09:31;89040.94;;;6.49;50.91
82927;BME280;72788;40.218;44.486;2023-12-28T05:11:57;89039.03;;;6.46;50.72
82927;BME280;72788;40.218;44.486;2023-12-28T05:14:23;89044.31;;;6.50;51.00
82927;BME280;72788;40.218;44.486;2023-12-28T05:16:48;89054.50;;;6.58;50.76
82927;BME280;72788;40.218;44.486;2023-12-28T05:19:14;89042.53;;;6.61;51.13
82927;BME280;72788;40.218;44.486;2023-12-28T05:21:40;89045.53;;;6.63;51.24
82927;BME280;72788;40.218;44.486;2023-12-28T05:24:05;89047.03;;;6.64;51.00
82927;BME280;72788;40.218;44.486;2023-12-28T05:26:31;89043.66;;;6.63;51.04
82927;BME280;72788;40.218;44.486;2023-12-28T05:28:57;89060.97;;;6.72;50.79
82927;BME280;72788;40.218;44.486;2023-12-28T05:31:23;89067.78;;;6.80;50.85
82927;BME280;72788;40.218;44.486;2023-12-28T05:33:48;89073.06;;;6.87;51.36
82927;BME280;72788;40.218;44.486;2023-12-28T05:36:14;89073.50;;;6.96;51.07
82927;BME280;72788;40.218;44.486;2023-12-28T05:38:39;89053.28;;;7.00;50.35
82927;BME280;72788;40.218;44.486;2023-12-28T05:41:05;89056.72;;;7.11;50.66
82927;BME280;72788;40.218;44.486;2023-12-28T05:43:31;89053.44;;;7.25;50.90
82927;BME280;72788;40.218;44.486;2023-12-28T05:45:56;89067.75;;;7.38;50.60
82927;BME280;72788;40.218;44.486;2023-12-28T05:48:22;89073.81;;;7.49;50.22
82927;BME280;72788;40.218;44.486;2023-12-28T05:50:48;89069.38;;;7.56;49.60
82927;BME280;72788;40.218;44.486;2023-12-28T05:53:14;89065.25;;;7.66;49.75
82927;BME280;72788;40.218;44.486;2023-12-28T05:55:41;89064.56;;;7.80;49.72
82927;BME280;72788;40.218;44.486;2023-12-28T05:58:06;89068.00;;;7.98;50.10
82927;BME280;72788;40.218;44.486;2023-12-28T06:00:32;89054.88;;;8.12;49.57
82927;BME280;72788;40.218;44.486;2023-12-28T06:02:58;89062.81;;;8.26;49.71
82927;BME280;72788;40.218;44.486;2023-12-28T06:05:24;89064.75;;;8.43;49.47
82927;BME280;72788;40.218;44.486;2023-12-28T06:07:49;89054.25;;;8.58;49.27
82927;BME280;72788;40.218;44.486;2023-12-28T06:10:15;89053.13;;;8.73;49.04
82927;BME280;72788;40.218;44.486;2023-12-28T06:12:41;89066.66;;;8.92;48.47
82927;BME280;72788;40.218;44.486;2023-12-28T06:15:07;89063.66;;;9.01;48.57
82927;BME280;72788;40.218;44.486;2023-12-28T06:17:32;89070.03;;;9.07;47.54
82927;BME280;72788;40.218;44.486;2023-12-28T06:19:58;89069.28;;;9.17;48.58
82927;BME280;72788;40.218;44.486;2023-12-28T06:22:24;89067.00;;;9.26;48.12
82927;BME280;72788;40.218;44.486;2023-12-28T06:24:54;89074.91;;;9.37;47.78
82927;BME280;72788;40.218;44.486;2023-12-28T06:27:20;89069.22;;;9.45;47.63
82927;BME280;72788;40.218;44.486;2023-12-28T06:29:46;89079.00;;;9.52;47.63
82927;BME280;72788;40.218;44.486;2023-12-28T06:32:12;89082.38;;;9.60;47.01
82927;BME280;72788;40.218;44.486;2023-12-28T06:34:37;89087.63;;;9.67;47.32
82927;BME280;72788;40.218;44.486;2023-12-28T06:37:03;89087.63;;;9.70;47.03
82927;BME280;72788;40.218;44.486;2023-12-28T06:39:29;89080.06;;;9.79;46.79
82927;BME280;72788;40.218;44.486;2023-12-28T06:41:54;89077.00;;;9.88;47.38
82927;BME280;72788;40.218;44.486;2023-12-28T06:44:20;89086.41;;;10.03;46.93
82927;BME280;72788;40.218;44.486;2023-12-28T06:46:46;89080.34;;;10.06;46.51
82927;BME280;72788;40.218;44.486;2023-12-28T06:49:11;89080.72;;;10.05;46.58
82927;BME280;72788;40.218;44.486;2023-12-28T06:51:37;89074.72;;;9.97;46.58
82927;BME280;72788;40.218;44.486;2023-12-28T06:54:03;89077.78;;;9.85;46.71
82927;BME280;72788;40.218;44.486;2023-12-28T06:56:29;89077.81;;;9.74;46.59
82927;BME280;72788;40.218;44.486;2023-12-28T06:58:55;89082.72;;;9.72;47.40
82927;BME280;72788;40.218;44.486;2023-12-28T07:01:20;89079.38;;;9.58;46.46
82927;BME280;72788;40.218;44.486;2023-12-28T07:03:46;89083.53;;;9.48;46.90
82927;BME280;72788;40.218;44.486;2023-12-28T07:06:13;89099.00;;;9.39;46.74
82927;BME280;72788;40.218;44.486;2023-12-28T07:08:39;89089.22;;;9.36;47.02
82927;BME280;72788;40.218;44.486;2023-12-28T07:11:05;89085.78;;;9.46;46.69
82927;BME280;72788;40.218;44.486;2023-12-28T07:13:31;89089.56;;;9.56;47.59
82927;BME280;72788;40.218;44.486;2023-12-28T07:15:56;89092.16;;;9.63;46.89
82927;BME280;72788;40.218;44.486;2023-12-28T07:18:22;89098.19;;;9.70;46.96
82927;BME280;72788;40.218;44.486;2023-12-28T07:20:48;89095.16;;;9.79;46.78
82927;BME280;72788;40.218;44.486;2023-12-28T07:23:14;89093.22;;;9.86;46.47
82927;BME280;72788;40.218;44.486;2023-12-28T07:25:40;89092.09;;;9.91;46.25
82927;BME280;72788;40.218;44.486;2023-12-28T07:28:06;89091.72;;;9.85;46.42
82927;BME280;72788;40.218;44.486;2023-12-28T07:30:31;89085.34;;;9.79;46.46
82927;BME280;72788;40.218;44.486;2023-12-28T07:32:57;89085.72;;;9.74;46.36
82927;BME280;72788;40.218;44.486;2023-12-28T07:35:23;89080.84;;;9.69;46.85
82927;BME280;72788;40.218;44.486;2023-12-28T07:37:48;89085.00;;;9.67;46.06
82927;BME280;72788;40.218;44.486;2023-12-28T07:40:15;89082.72;;;9.65;46.48
82927;BME280;72788;40.218;44.486;2023-12-28T07:42:41;89076.34;;;9.63;46.31
82927;BME280;72788;40.218;44.486;2023-12-28T07:45:06;89070.69;;;9.64;46.89
82927;BME280;72788;40.218;44.486;2023-12-28T07:47:32;89072.91;;;9.73;46.05
82927;BME280;72788;40.218;44.486;2023-12-28T07:49:59;89070.63;;;9.82;47.34
82927;BME280;72788;40.218;44.486;2023-12-28T07:52:26;89070.59;;;9.89;46.14
82927;BME280;72788;40.218;44.486;2023-12-28T07:54:52;89061.91;;;9.95;45.98
82927;BME280;72788;40.218;44.486;2023-12-28T07:57:18;89058.47;;;10.06;45.75
82927;BME280;72788;40.218;44.486;2023-12-28T07:59:43;89064.84;;;10.22;45.42
82927;BME280;72788;40.218;44.486;2023-12-28T08:02:09;89065.84;;;10.46;45.25
82927;BME280;72788;40.218;44.486;2023-12-28T08:04:35;89059.31;;;10.65;45.48
82927;BME280;72788;40.218;44.486;2023-12-28T08:07:00;89057.31;;;10.79;43.31
82927;BME280;72788;40.218;44.486;2023-12-28T08:09:26;89058.41;;;10.85;43.78
82927;BME280;72788;40.218;44.486;2023-12-28T08:11:52;89053.16;;;10.82;43.53
82927;BME280;72788;40.218;44.486;2023-12-28T08:14:18;89051.66;;;10.81;42.58
82927;BME280;72788;40.218;44.486;2023-12-28T08:16:44;89061.78;;;10.86;42.99
82927;BME280;72788;40.218;44.486;2023-12-28T08:19:10;89055.00;;;10.88;42.45
82927;BME280;72788;40.218;44.486;2023-12-28T08:21:36;89063.19;;;11.05;42.45
82927;BME280;72788;40.218;44.486;2023-12-28T08:24:02;89058.25;;;11.03;42.53
82927;BME280;72788;40.218;44.486;2023-12-28T08:26:28;89042.78;;;11.02;43.07
82927;BME280;72788;40.218;44.486;2023-12-28T08:28:54;89044.97;;;11.10;42.18
82927;BME280;72788;40.218;44.486;2023-12-28T08:31:19;89047.66;;;11.07;42.20
82927;BME280;72788;40.218;44.486;2023-12-28T08:33:45;89043.13;;;11.07;42.34
82927;BME280;72788;40.218;44.486;2023-12-28T08:36:11;89043.53;;;11.02;41.86
82927;BME280;72788;40.218;44.486;2023-12-28T08:38:38;89039.44;;;10.98;42.10
82927;BME280;72788;40.218;44.486;2023-12-28T08:41:03;89030.06;;;10.89;40.89
82927;BME280;72788;40.218;44.486;2023-12-28T08:43:35;89024.03;;;10.89;41.91
82927;BME280;72788;40.218;44.486;2023-12-28T08:46:01;89049.66;;;10.92;41.45
82927;BME280;72788;40.218;44.486;2023-12-28T08:48:27;89041.00;;;10.91;41.34
82927;BME280;72788;40.218;44.486;2023-12-28T08:50:53;89033.09;;;10.88;41.99
82927;BME280;72788;40.218;44.486;2023-12-28T08:53:18;89032.00;;;10.85;42.48
82927;BME280;72788;40.218;44.486;2023-12-28T08:55:44;89034.94;;;10.91;41.62
82927;BME280;72788;40.218;44.486;2023-12-28T08:58:10;89017.94;;;10.96;42.52
82927;BME280;72788;40.218;44.486;2023-12-28T09:00:35;89010.38;;;10.94;42.17
82927;BME280;72788;40.218;44.486;2023-12-28T09:03:01;89018.78;;;10.85;42.20
82927;BME280;72788;40.218;44.486;2023-12-28T09:05:26;89001.00;;;10.86;43.09
82927;BME280;72788;40.218;44.486;2023-12-28T09:07:52;88996.19;;;10.77;42.94
82927;BME280;72788;40.218;44.486;2023-12-28T09:10:18;88987.47;;;10.80;43.20
82927;BME280;72788;40.218;44.486;2023-12-28T09:12:43;88976.94;;;10.77;43.49
82927;BME280;72788;40.218;44.486;2023-12-28T09:15:09;88982.91;;;10.84;43.15
82927;BME280;72788;40.218;44.486;2023-12-28T09:17:35;88978.75;;;10.83;43.40
82927;BME280;72788;40.218;44.486;2023-12-28T09:20:01;88974.66;;;10.79;43.21
82927;BME280;72788;40.218;44.486;2023-12-28T09:22:28;88973.16;;;10.74;44.03
82927;BME280;72788;40.218;44.486;2023-12-28T09:24:54;88968.66;;;10.71;43.90
82927;BME280;72788;40.218;44.486;2023-12-28T09:27:19;88989.72;;;10.85;44.46
82927;BME280;72788;40.218;44.486;2023-12-28T09:29:45;88971.53;;;10.91;44.63
82927;BME280;72788;40.218;44.486;2023-12-28T09:32:11;88981.59;;;11.03;43.85
82927;BME280;72788;40.218;44.486;2023-12-28T09:34:37;88975.56;;;11.03;44.12
82927;BME280;72788;40.218;44.486;2023-12-28T09:37:02;88982.97;;;11.18;44.42
82927;BME280;72788;40.218;44.486;2023-12-28T09:39:28;88986.25;;;11.29;44.42
82927;BME280;72788;40.218;44.486;2023-12-28T09:42:04;88991.84;;;11.38;43.48
82927;BME280;72788;40.218;44.486;2023-12-28T09:44:32;88993.22;;;11.50;43.89
82927;BME280;72788;40.218;44.486;2023-12-28T09:46:58;88989.28;;;11.65;43.97
82927;BME280;72788;40.218;44.486;2023-12-28T09:49:25;88964.75;;;11.61;44.10
82927;BME280;72788;40.218;44.486;2023-12-28T09:51:50;88977.50;;;11.70;42.86
82927;BME280;72788;40.218;44.486;2023-12-28T09:54:16;88968.91;;;11.62;43.57
82927;BME280;72788;40.218;44.486;2023-12-28T09:56:44;88970.41;;;11.63;43.03
82927;BME280;72788;40.218;44.486;2023-12-28T09:59:10;88966.59;;;11.68;43.97
82927;BME280;72788;40.218;44.486;2023-12-28T10:01:37;88971.06;;;11.74;43.06
82927;BME280;72788;40.218;44.486;2023-12-28T10:04:03;88977.34;;;11.84;42.45
82927;BME280;72788;40.218;44.486;2023-12-28T10:06:29;88971.69;;;11.85;42.35
82927;BME280;72788;40.218;44.486;2023-12-28T10:08:55;88962.88;;;11.96;42.58
82927;BME280;72788;40.218;44.486;2023-12-28T10:11:21;88942.78;;;11.98;42.71
82927;BME280;72788;40.218;44.486;2023-12-28T10:13:50;88940.63;;;11.90;42.44
82927;BME280;72788;40.218;44.486;2023-12-28T10:16:16;88941.44;;;11.87;42.91
82927;BME280;72788;40.218;44.486;2023-12-28T10:18:43;88944.47;;;11.85;41.97
82927;BME280;72788;40.218;44.486;2023-12-28T10:21:09;88928.34;;;11.76;42.07
82927;BME280;72788;40.218;44.486;2023-12-28T10:23:35;88932.13;;;11.75;42.31
82927;BME280;72788;40.218;44.486;2023-12-28T10:26:02;88941.53;;;11.79;42.69
82927;BME280;72788;40.218;44.486;2023-12-28T10:28:34;88952.28;;;11.96;42.03
82927;BME280;72788;40.218;44.486;2023-12-28T10:31:00;88957.38;;;12.10;42.90
82927;BME280;72788;40.218;44.486;2023-12-28T10:33:26;88957.28;;;12.17;42.01
82927;BME280;72788;40.218;44.486;2023-12-28T10:35:52;88951.88;;;12.24;41.83
82927;BME280;72788;40.218;44.486;2023-12-28T10:38:18;88964.56;;;12.36;41.68
82927;BME280;72788;40.218;44.486;2023-12-28T10:40:45;88961.72;;;12.50;42.36
82927;BME280;72788;40.218;44.486;2023-12-28T10:43:16;88945.91;;;12.70;41.55
82927;BME280;72788;40.218;44.486;2023-12-28T10:45:47;88946.06;;;12.82;41.15
82927;BME280;72788;40.218;44.486;2023-12-28T10:48:15;88959.84;;;12.97;41.06
82927;BME280;72788;40.218;44.486;2023-12-28T10:50:49;88952.44;;;13.12;40.67
82927;BME280;72788;40.218;44.486;2023-12-28T10:55:51;88953.00;;;13.23;39.52
82927;BME280;72788;40.218;44.486;2023-12-28T10:58:58;88955.94;;;13.29;38.75
82927;BME280;72788;40.218;44.486;2023-12-28T11:01:31;88960.75;;;13.34;38.16
82927;BME280;72788;40.218;44.486;2023-12-28T11:06:52;88966.56;;;13.48;39.59
82927;BME280;72788;40.218;44.486;2023-12-28T11:09:20;88968.47;;;13.48;39.76
82927;BME280;72788;40.218;44.486;2023-12-28T11:11:49;88959.47;;;13.42;38.54
82927;BME280;72788;40.218;44.486;2023-12-28T11:14:17;88971.31;;;13.37;38.52
82927;BME280;72788;40.218;44.486;2023-12-28T11:16:43;88977.78;;;13.36;39.30
82927;BME280;72788;40.218;44.486;2023-12-28T11:19:09;88984.53;;;13.41;39.22
82927;BME280;72788;40.218;44.486;2023-12-28T11:21:36;88993.91;;;13.45;39.02
82927;BME280;72788;40.218;44.486;2023-12-28T11:24:02;88989.47;;;13.39;38.48
82927;BME280;72788;40.218;44.486;2023-12-28T11:26:29;88977.50;;;13.31;38.36
82927;BME280;72788;40.218;44.486;2023-12-28T11:29:02;88974.72;;;13.38;36.63
82927;BME280;72788;40.218;44.486;2023-12-28T11:31:28;88964.16;;;13.34;38.31
82927;BME280;72788;40.218;44.486;2023-12-28T11:33:57;88961.97;;;13.29;38.12
82927;BME280;72788;40.218;44.486;2023-12-28T11:36:40;88971.84;;;13.29;36.18
82927;BME280;72788;40.218;44.486;2023-12-28T11:39:07;88973.00;;;13.27;37.60
82927;BME280;72788;40.218;44.486;2023-12-28T11:41:35;88974.28;;;13.19;37.02
82927;BME280;72788;40.218;44.486;2023-12-28T11:44:05;88981.28;;;13.06;37.06
82927;BME280;72788;40.218;44.486;2023-12-28T11:46:31;88958.53;;;13.09;37.21
82927;BME280;72788;40.218;44.486;2023-12-28T11:49:08;88976.34;;;13.08;35.86
82927;BME280;72788;40.218;44.486;2023-12-28T11:51:35;88983.50;;;13.11;36.63
82927;BME280;72788;40.218;44.486;2023-12-28T11:54:03;88987.66;;;13.12;37.20
82927;BME280;72788;40.218;44.486;2023-12-28T11:56:29;88989.91;;;13.14;37.74
82927;BME280;72788;40.218;44.486;2023-12-28T11:58:55;88985.66;;;13.20;37.48
82927;BME280;72788;40.218;44.486;2023-12-28T12:01:21;88992.47;;;13.21;36.80
82927;BME280;72788;40.218;44.486;2023-12-28T12:03:47;89000.56;;;13.10;36.86
82927;BME280;72788;40.218;44.486;2023-12-28T12:06:14;88988.91;;;13.04;36.01
82927;BME280;72788;40.218;44.486;2023-12-28T12:08:40;88998.94;;;12.93;35.93
82927;BME280;72788;40.218;44.486;2023-12-28T12:11:06;89004.06;;;12.80;36.13
82927;BME280;72788;40.218;44.486;2023-12-28T12:13:33;89004.56;;;12.72;36.36
82927;BME280;72788;40.218;44.486;2023-12-28T12:15:59;89008.72;;;12.73;36.73
82927;BME280;72788;40.218;44.486;2023-12-28T12:18:29;88985.41;;;12.61;33.08
82927;BME280;72788;40.218;44.486;2023-12-28T12:20:55;89018.03;;;12.58;33.58
82927;BME280;72788;40.218;44.486;2023-12-28T12:23:21;89032.69;;;12.62;31.91
82927;BME280;72788;40.218;44.486;2023-12-28T12:25:46;89041.94;;;12.51;30.58
82927;BME280;72788;40.218;44.486;2023-12-28T12:28:12;89049.88;;;12.54;32.36
82927;BME280;72788;40.218;44.486;2023-12-28T12:30:38;89057.03;;;12.57;33.09
82927;BME280;72788;40.218;44.486;2023-12-28T12:33:04;89057.34;;;12.59;32.78
82927;BME280;72788;40.218;44.486;2023-12-28T12:35:30;89098.81;;;12.46;29.83
82927;BME280;72788;40.218;44.486;2023-12-28T12:37:57;89063.72;;;12.39;31.29
82927;BME280;72788;40.218;44.486;2023-12-28T12:40:24;89069.72;;;12.39;32.76
82927;BME280;72788;40.218;44.486;2023-12-28T12:42:54;89090.59;;;12.37;29.02
82927;BME280;72788;40.218;44.486;2023-12-28T12:45:21;89086.19;;;12.23;29.27
82927;BME280;72788;40.218;44.486;2023-12-28T12:47:51;89120.09;;;12.05;29.14
82927;BME280;72788;40.218;44.486;2023-12-28T12:50:17;89092.75;;;11.78;29.53
82927;BME280;72788;40.218;44.486;2023-12-28T12:52:43;89078.00;;;11.77;32.18
82927;BME280;72788;40.218;44.486;2023-12-28T12:55:13;89071.97;;;11.80;31.90
82927;BME280;72788;40.218;44.486;2023-12-28T12:57:42;89076.91;;;11.74;31.07
82927;BME280;72788;40.218;44.486;2023-12-28T13:00:09;89082.25;;;11.67;30.79
82927;BME280;72788;40.218;44.486;2023-12-28T13:02:35;89096.06;;;11.48;30.98